LNKNG EGTE-ENZV
Flight info
| Callsign | LNKNG |
|---|---|
| Flight time | N/A |
| Altitude | 24000 |
| Route | EXMOR DCT CARWI N864 AVTIC N38 ANJAK/N0454F400 N38 NOKIN UP17 POL UP18 LEHOC/N0456F410 DCT NT DCT GOMOT DCT RIVOT DCT ALOTI DCT KUNEM |
| Aircraft | CL60/M-SBDE1E2E3FGHIJ1J4J5J7M3RWXYZ/LB1V1D1 |
Departure
| Time | N/A |
|---|---|
| Airport | Exeter International Airport (EGTE) |
Arrival
| Time | 2026-04-14 23:25 |
|---|---|
| Airport | Stavanger Airport, Sola (ENZV) |
| Time | Latitude | Longitude | Altitude | Speed | Heading |
|---|---|---|---|---|---|
| 2026-04-14 22:18 | 53.34584 | -2.57280 | 40994 ft | 497 kts | 27° |
| 2026-04-14 22:18 | 53.40285 | -2.50683 | 40994 ft | 503 kts | 28° |
| 2026-04-14 22:19 | 53.48923 | -2.40620 | 40996 ft | 506 kts | 28° |
| 2026-04-14 22:20 | 53.54659 | -2.33830 | 40995 ft | 504 kts | 29° |
| 2026-04-14 22:20 | 53.60379 | -2.27036 | 40994 ft | 503 kts | 28° |
| 2026-04-14 22:21 | 53.66073 | -2.20253 | 40994 ft | 503 kts | 28° |
| 2026-04-14 22:21 | 53.71861 | -2.13759 | 40994 ft | 496 kts | 21° |
| 2026-04-14 22:22 | 53.78096 | -2.09441 | 40995 ft | 481 kts | 8° |
| 2026-04-14 22:22 | 53.84582 | -2.07205 | 40993 ft | 474 kts | 2° |
| 2026-04-14 22:23 | 53.91078 | -2.05211 | 40994 ft | 473 kts | 2° |
| 2026-04-14 22:23 | 53.97518 | -2.03228 | 40995 ft | 473 kts | 2° |
| 2026-04-14 22:24 | 54.03985 | -2.01144 | 40996 ft | 474 kts | 4° |
| 2026-04-14 22:24 | 54.10435 | -1.98840 | 40996 ft | 474 kts | 4° |
| 2026-04-14 22:25 | 54.16898 | -1.96526 | 40996 ft | 475 kts | 4° |
| 2026-04-14 22:25 | 54.23352 | -1.94209 | 40996 ft | 475 kts | 4° |
| 2026-04-14 22:26 | 54.29798 | -1.91887 | 40995 ft | 475 kts | 4° |
| 2026-04-14 22:26 | 54.36261 | -1.89552 | 40993 ft | 475 kts | 4° |
| 2026-04-14 22:27 | 54.42718 | -1.87212 | 40992 ft | 475 kts | 4° |
| 2026-04-14 22:27 | 54.49162 | -1.84869 | 40993 ft | 475 kts | 4° |
| 2026-04-14 22:28 | 54.55627 | -1.82512 | 40992 ft | 475 kts | 4° |
| 2026-04-14 22:28 | 54.62071 | -1.80154 | 40993 ft | 475 kts | 4° |
| 2026-04-14 22:29 | 54.68545 | -1.77778 | 40993 ft | 475 kts | 4° |
| 2026-04-14 22:29 | 54.74995 | -1.75403 | 40993 ft | 475 kts | 4° |
| 2026-04-14 22:30 | 54.81430 | -1.73026 | 40993 ft | 475 kts | 4° |
| 2026-04-14 22:30 | 54.87868 | -1.70640 | 40994 ft | 475 kts | 4° |
| 2026-04-14 22:31 | 54.94358 | -1.68227 | 40995 ft | 475 kts | 4° |
| 2026-04-14 22:31 | 55.00796 | -1.65724 | 40996 ft | 478 kts | 8° |
| 2026-04-14 22:32 | 55.07041 | -1.61363 | 40997 ft | 492 kts | 21° |
| 2026-04-14 22:32 | 55.12809 | -1.54702 | 40995 ft | 499 kts | 28° |
| 2026-04-14 22:33 | 55.18446 | -1.47713 | 40998 ft | 499 kts | 28° |
| 2026-04-14 22:33 | 55.24118 | -1.40659 | 40998 ft | 499 kts | 28° |
| 2026-04-14 22:34 | 55.29747 | -1.33635 | 40999 ft | 498 kts | 30° |
| 2026-04-14 22:34 | 55.35431 | -1.26899 | 41150 ft | 489 kts | 23° |
| 2026-04-14 22:35 | 55.41658 | -1.22551 | 41025 ft | 486 kts | 14° |
| 2026-04-14 22:35 | 55.47627 | -1.16662 | 41005 ft | 501 kts | 33° |
| 2026-04-14 22:36 | 55.52915 | -1.08623 | 41001 ft | 503 kts | 36° |
| 2026-04-14 22:36 | 55.58215 | -1.00621 | 41000 ft | 502 kts | 34° |
| 2026-04-14 22:37 | 55.63584 | -0.92728 | 41005 ft | 501 kts | 33° |
| 2026-04-14 22:37 | 55.68990 | -0.84996 | 41010 ft | 500 kts | 32° |
| 2026-04-14 22:38 | 55.74459 | -0.77395 | 41012 ft | 500 kts | 32° |
| 2026-04-14 22:38 | 55.79978 | -0.69977 | 41013 ft | 499 kts | 30° |
| 2026-04-14 22:39 | 55.85581 | -0.62706 | 41015 ft | 499 kts | 30° |
| 2026-04-14 22:39 | 55.90990 | -0.54957 | 41016 ft | 505 kts | 39° |
| 2026-04-14 22:40 | 55.95437 | -0.45213 | 41017 ft | 514 kts | 51° |
| 2026-04-14 22:40 | 55.99429 | -0.34619 | 41019 ft | 514 kts | 52° |
| 2026-04-14 22:41 | 56.03386 | -0.24086 | 41023 ft | 514 kts | 52° |
| 2026-04-14 22:41 | 56.07368 | -0.13448 | 41027 ft | 514 kts | 52° |
| 2026-04-14 22:42 | 56.11329 | -0.02817 | 41024 ft | 513 kts | 52° |
| 2026-04-14 22:42 | 56.15268 | 0.07797 | 41022 ft | 513 kts | 53° |
| 2026-04-14 22:43 | 56.19208 | 0.18462 | 41033 ft | 515 kts | 53° |
| 2026-04-14 22:43 | 56.23110 | 0.29070 | 41043 ft | 510 kts | 52° |
| 2026-04-14 22:44 | 56.26980 | 0.39634 | 41042 ft | 502 kts | 52° |
| 2026-04-14 22:44 | 56.30798 | 0.50105 | 41058 ft | 499 kts | 52° |
| 2026-04-14 22:45 | 56.34580 | 0.60511 | 41061 ft | 499 kts | 52° |
| 2026-04-14 22:45 | 56.38380 | 0.71024 | 41067 ft | 500 kts | 53° |
| 2026-04-14 22:46 | 56.42584 | 0.80884 | 41074 ft | 494 kts | 41° |
| 2026-04-14 22:46 | 56.47469 | 0.89600 | 41080 ft | 494 kts | 40° |
| 2026-04-14 22:47 | 56.52361 | 0.98352 | 41081 ft | 494 kts | 40° |
| 2026-04-14 22:47 | 56.57214 | 1.07066 | 41084 ft | 494 kts | 41° |
| 2026-04-14 22:48 | 56.62099 | 1.15873 | 41083 ft | 494 kts | 41° |
| 2026-04-14 22:48 | 56.66920 | 1.24598 | 41094 ft | 494 kts | 41° |
| 2026-04-14 22:49 | 56.71782 | 1.33424 | 41100 ft | 493 kts | 41° |
| 2026-04-14 22:49 | 56.76625 | 1.42256 | 41107 ft | 493 kts | 41° |
| 2026-04-14 22:50 | 56.81446 | 1.51082 | 41109 ft | 493 kts | 41° |
| 2026-04-14 22:50 | 56.86247 | 1.59897 | 41115 ft | 493 kts | 41° |
| 2026-04-14 22:51 | 56.91070 | 1.68792 | 41121 ft | 493 kts | 42° |
| 2026-04-14 22:51 | 56.95882 | 1.77706 | 41119 ft | 493 kts | 42° |
| 2026-04-14 22:52 | 57.00684 | 1.86632 | 41121 ft | 493 kts | 42° |
| 2026-04-14 22:52 | 57.05503 | 1.95625 | 41114 ft | 494 kts | 42° |
| 2026-04-14 22:53 | 57.10313 | 2.04634 | 41141 ft | 494 kts | 42° |
| 2026-04-14 22:53 | 57.15079 | 2.13596 | 41163 ft | 494 kts | 42° |
| 2026-04-14 22:54 | 57.19875 | 2.22654 | 41156 ft | 493 kts | 42° |
| 2026-04-14 22:54 | 57.24581 | 2.31581 | 41159 ft | 482 kts | 42° |
| 2026-04-14 22:55 | 57.29211 | 2.40396 | 41162 ft | 475 kts | 42° |
| 2026-04-14 22:55 | 57.33800 | 2.49161 | 41159 ft | 475 kts | 42° |
| 2026-04-14 22:56 | 57.38362 | 2.57904 | 41162 ft | 475 kts | 42° |
| 2026-04-14 22:56 | 57.42957 | 2.66749 | 41162 ft | 476 kts | 43° |
| 2026-04-14 22:57 | 57.47512 | 2.75549 | 41160 ft | 476 kts | 43° |
| 2026-04-14 22:57 | 57.52103 | 2.84455 | 41154 ft | 476 kts | 43° |
| 2026-04-14 22:58 | 57.56662 | 2.93332 | 41159 ft | 476 kts | 43° |
| 2026-04-14 22:58 | 57.61199 | 3.02203 | 41160 ft | 476 kts | 43° |
| 2026-04-14 22:59 | 57.65783 | 3.11199 | 40913 ft | 481 kts | 43° |
| 2026-04-14 22:59 | 57.68070 | 3.15696 | 40351 ft | 485 kts | 43° |
| 2026-04-14 22:59 | 57.70408 | 3.20309 | 39748 ft | 482 kts | 43° |
| 2026-04-14 22:59 | 57.72681 | 3.24804 | 39120 ft | 479 kts | 43° |
| 2026-04-14 23:00 | 57.74967 | 3.29335 | 38540 ft | 477 kts | 43° |
| 2026-04-14 23:00 | 57.77239 | 3.33843 | 37857 ft | 478 kts | 43° |
| 2026-04-14 23:00 | 57.79492 | 3.38323 | 37248 ft | 477 kts | 43° |
| 2026-04-14 23:00 | 57.81756 | 3.42833 | 36613 ft | 476 kts | 42° |
| 2026-04-14 23:01 | 57.84017 | 3.47348 | 35966 ft | 476 kts | 42° |
| 2026-04-14 23:01 | 57.86283 | 3.51880 | 35348 ft | 474 kts | 41° |
| 2026-04-14 23:01 | 57.88568 | 3.56206 | 34720 ft | 468 kts | 36° |
| 2026-04-14 23:01 | 57.91072 | 3.59988 | 34084 ft | 460 kts | 28° |
| 2026-04-14 23:02 | 57.93746 | 3.63097 | 33458 ft | 451 kts | 21° |
| 2026-04-14 23:02 | 57.96531 | 3.65581 | 32838 ft | 442 kts | 17° |
| 2026-04-14 23:02 | 57.99353 | 3.67896 | 32265 ft | 436 kts | 16° |
| 2026-04-14 23:02 | 58.02121 | 3.70178 | 31659 ft | 428 kts | 15° |
| 2026-04-14 23:03 | 58.04808 | 3.72398 | 31133 ft | 421 kts | 15° |
| 2026-04-14 23:03 | 58.07477 | 3.74601 | 30580 ft | 417 kts | 15° |
| 2026-04-14 23:03 | 58.10128 | 3.76793 | 30047 ft | 415 kts | 15° |
| 2026-04-14 23:03 | 58.12767 | 3.78978 | 29477 ft | 411 kts | 15° |
| 2026-04-14 23:04 | 58.15337 | 3.81112 | 28945 ft | 405 kts | 14° |
| 2026-04-14 23:04 | 58.17905 | 3.83245 | 28408 ft | 401 kts | 14° |
| 2026-04-14 23:04 | 58.20446 | 3.85359 | 27879 ft | 397 kts | 14° |
| 2026-04-14 23:04 | 58.22949 | 3.87445 | 27339 ft | 392 kts | 14° |
| 2026-04-14 23:05 | 58.25403 | 3.89494 | 26847 ft | 388 kts | 14° |
| 2026-04-14 23:05 | 58.27878 | 3.91561 | 26335 ft | 386 kts | 15° |
| 2026-04-14 23:05 | 58.30293 | 3.93581 | 25835 ft | 382 kts | 15° |
| 2026-04-14 23:05 | 58.32723 | 3.95617 | 25341 ft | 380 kts | 15° |
| 2026-04-14 23:06 | 58.35135 | 3.97641 | 24827 ft | 376 kts | 15° |
| 2026-04-14 23:06 | 58.37492 | 3.99622 | 24336 ft | 372 kts | 15° |
| 2026-04-14 23:06 | 58.39831 | 4.01591 | 23849 ft | 369 kts | 15° |
| 2026-04-14 23:06 | 58.42168 | 4.03561 | 23367 ft | 366 kts | 15° |
| 2026-04-14 23:07 | 58.44474 | 4.05507 | 22884 ft | 362 kts | 15° |
| 2026-04-14 23:07 | 58.46771 | 4.07448 | 22406 ft | 360 kts | 15° |
| 2026-04-14 23:07 | 58.49034 | 4.09363 | 21935 ft | 357 kts | 16° |
| 2026-04-14 23:07 | 58.51283 | 4.11268 | 21468 ft | 355 kts | 16° |
| 2026-04-14 23:08 | 58.53532 | 4.13176 | 20997 ft | 353 kts | 16° |
| 2026-04-14 23:08 | 58.55765 | 4.15073 | 20531 ft | 351 kts | 16° |
| 2026-04-14 23:08 | 58.57985 | 4.16962 | 20070 ft | 349 kts | 16° |
| 2026-04-14 23:08 | 58.60203 | 4.18851 | 19606 ft | 348 kts | 16° |
| 2026-04-14 23:09 | 58.62387 | 4.20714 | 19158 ft | 346 kts | 17° |
| 2026-04-14 23:09 | 58.64576 | 4.22585 | 18705 ft | 345 kts | 17° |
| 2026-04-14 23:09 | 58.66747 | 4.24442 | 18258 ft | 344 kts | 17° |
| 2026-04-14 23:09 | 58.68935 | 4.26316 | 17808 ft | 343 kts | 17° |
| 2026-04-14 23:10 | 58.71098 | 4.28172 | 17348 ft | 341 kts | 18° |
| 2026-04-14 23:10 | 58.73247 | 4.30018 | 16900 ft | 340 kts | 18° |
| 2026-04-14 23:10 | 58.75410 | 4.31879 | 16448 ft | 339 kts | 18° |
| 2026-04-14 23:10 | 58.77511 | 4.33942 | 15997 ft | 343 kts | 28° |
| 2026-04-14 23:11 | 58.79285 | 4.37012 | 15515 ft | 350 kts | 46° |
| 2026-04-14 23:11 | 58.80533 | 4.41043 | 15022 ft | 354 kts | 61° |
| 2026-04-14 23:11 | 58.81524 | 4.45311 | 14531 ft | 351 kts | 62° |
| 2026-04-14 23:11 | 58.82520 | 4.49592 | 14079 ft | 348 kts | 62° |
| 2026-04-14 23:12 | 58.83500 | 4.53808 | 13623 ft | 345 kts | 63° |
| 2026-04-14 23:12 | 58.84475 | 4.58007 | 13169 ft | 342 kts | 63° |
| 2026-04-14 23:12 | 58.85445 | 4.62174 | 12718 ft | 339 kts | 63° |
| 2026-04-14 23:12 | 58.86427 | 4.66342 | 12264 ft | 335 kts | 64° |
| 2026-04-14 23:13 | 58.87392 | 4.70394 | 11818 ft | 332 kts | 64° |
| 2026-04-14 23:13 | 58.88341 | 4.74426 | 11372 ft | 329 kts | 65° |
| 2026-04-14 23:13 | 58.89251 | 4.78414 | 10955 ft | 324 kts | 65° |
| 2026-04-14 23:13 | 58.90132 | 4.82278 | 10525 ft | 305 kts | 65° |
| 2026-04-14 23:14 | 58.90966 | 4.85927 | 10166 ft | 288 kts | 66° |
| 2026-04-14 23:14 | 58.91754 | 4.89394 | 9566 ft | 283 kts | 66° |
| 2026-04-14 23:14 | 58.92522 | 4.92785 | 9269 ft | 266 kts | 66° |
| 2026-04-14 23:14 | 58.93244 | 4.95965 | 8948 ft | 256 kts | 66° |
| 2026-04-14 23:15 | 58.93959 | 4.99115 | 8611 ft | 253 kts | 66° |
| 2026-04-14 23:15 | 58.94653 | 5.02173 | 8281 ft | 249 kts | 66° |
| 2026-04-14 23:15 | 58.95351 | 5.05256 | 7958 ft | 245 kts | 66° |
| 2026-04-14 23:15 | 58.96030 | 5.08257 | 7646 ft | 241 kts | 66° |
| 2026-04-14 23:16 | 58.96697 | 5.11201 | 7299 ft | 235 kts | 66° |
| 2026-04-14 23:16 | 58.97335 | 5.14029 | 7049 ft | 225 kts | 66° |
| 2026-04-14 23:16 | 58.97956 | 5.16777 | 6776 ft | 226 kts | 67° |
| 2026-04-14 23:16 | 58.98580 | 5.19554 | 6464 ft | 225 kts | 67° |
| 2026-04-14 23:17 | 58.99150 | 5.22333 | 6180 ft | 221 kts | 69° |
| 2026-04-14 23:17 | 58.99706 | 5.25124 | 5893 ft | 218 kts | 69° |
| 2026-04-14 23:17 | 59.00249 | 5.27853 | 5602 ft | 216 kts | 69° |
| 2026-04-14 23:18 | 59.01304 | 5.33171 | 5063 ft | 209 kts | 69° |
| 2026-04-14 23:18 | 59.01824 | 5.35793 | 4796 ft | 206 kts | 69° |
| 2026-04-14 23:18 | 59.02329 | 5.38349 | 4535 ft | 203 kts | 69° |
| 2026-04-14 23:18 | 59.02830 | 5.40881 | 4287 ft | 197 kts | 69° |
| 2026-04-14 23:19 | 59.03304 | 5.43288 | 4040 ft | 185 kts | 69° |
| 2026-04-14 23:19 | 59.03754 | 5.45569 | 3808 ft | 179 kts | 68° |
| 2026-04-14 23:19 | 59.04197 | 5.47820 | 3568 ft | 178 kts | 68° |
| 2026-04-14 23:19 | 59.04592 | 5.50101 | 3334 ft | 178 kts | 79° |
| 2026-04-14 23:20 | 59.04431 | 5.52458 | 3095 ft | 178 kts | 107° |
| 2026-04-14 23:20 | 59.04015 | 5.54706 | 2874 ft | 179 kts | 107° |
| 2026-04-14 23:20 | 59.03607 | 5.56974 | 2617 ft | 178 kts | 105° |
| 2026-04-14 23:20 | 59.03467 | 5.59329 | 2342 ft | 174 kts | 89° |
| 2026-04-14 23:21 | 59.03219 | 5.61612 | 2075 ft | 175 kts | 107° |
| 2026-04-14 23:21 | 59.02484 | 5.63432 | 1992 ft | 179 kts | 149° |
| 2026-04-14 23:21 | 59.01292 | 5.63765 | 2035 ft | 170 kts | 182° |
| 2026-04-14 23:21 | 59.00123 | 5.63531 | 2031 ft | 168 kts | 182° |
| 2026-04-14 23:22 | 58.98964 | 5.63436 | 1997 ft | 165 kts | 178° |
| 2026-04-14 23:22 | 58.97885 | 5.63449 | 1776 ft | 148 kts | 176° |
| 2026-04-14 23:22 | 58.96856 | 5.63490 | 1588 ft | 145 kts | 176° |
| 2026-04-14 23:22 | 58.95903 | 5.63526 | 1412 ft | 134 kts | 176° |
| 2026-04-14 23:23 | 58.94979 | 5.63557 | 1218 ft | 130 kts | 176° |
| 2026-04-14 23:23 | 58.94084 | 5.63586 | 1032 ft | 127 kts | 176° |
| 2026-04-14 23:23 | 58.93191 | 5.63629 | 844 ft | 127 kts | 176° |
| 2026-04-14 23:23 | 58.92307 | 5.63675 | 651 ft | 125 kts | 176° |
| 2026-04-14 23:24 | 58.91430 | 5.63697 | 472 ft | 127 kts | 178° |
| 2026-04-14 23:24 | 58.90558 | 5.63715 | 303 ft | 126 kts | 179° |
| 2026-04-14 23:24 | 58.89701 | 5.63729 | 124 ft | 123 kts | 179° |
| 2026-04-14 23:24 | 58.88864 | 5.63752 | 21 ft | 111 kts | 178° |
| 2026-04-14 23:25 | 58.88298 | 5.63784 | 27 ft | 26 kts | 178° |
| 2026-04-14 23:25 | 58.88183 | 5.63780 | 28 ft | 32 kts | 180° |
| 2026-04-14 23:25 | 58.87916 | 5.63785 | 26 ft | 40 kts | 179° |
| 2026-04-14 23:25 | 58.87713 | 5.63767 | 26 ft | 15 kts | 191° |
| 2026-04-14 23:26 | 58.87703 | 5.63588 | 25 ft | 18 kts | 289° |
| 2026-04-14 23:26 | 58.87748 | 5.63344 | 22 ft | 18 kts | 298° |
| 2026-04-14 23:26 | 58.87846 | 5.63293 | 23 ft | 16 kts | 13° |
| 2026-04-14 23:26 | 58.87959 | 5.63386 | 26 ft | 18 kts | 24° |
| 2026-04-14 23:27 | 58.88094 | 5.63441 | 26 ft | 22 kts | 358° |
| 2026-04-14 23:27 | 58.88232 | 5.63437 | 27 ft | 13 kts | 358° |
| 2026-04-14 23:27 | 58.88253 | 5.63428 | 28 ft | 5 kts | 329° |
| 2026-04-14 23:27 | 58.88280 | 5.63308 | 28 ft | 13 kts | 301° |
| 2026-04-14 23:28 | 58.88375 | 5.63220 | 28 ft | 17 kts | 333° |
| 2026-04-14 23:28 | 58.88446 | 5.63096 | 29 ft | 14 kts | 315° |
| 2026-04-14 23:28 | 58.88526 | 5.62949 | 29 ft | 17 kts | 316° |
| 2026-04-14 23:28 | 58.88600 | 5.62828 | 29 ft | 13 kts | 317° |
| 2026-04-14 23:29 | 58.88666 | 5.62687 | 30 ft | 12 kts | 297° |
| 2026-04-14 23:29 | 58.88708 | 5.62551 | 29 ft | 11 kts | 317° |
| 2026-04-14 23:29 | 58.88738 | 5.62585 | 30 ft | 4 kts | 107° |
| 2026-04-14 23:29 | 58.88729 | 5.62594 | 30 ft | 0 kts | 187° |